Mika — MIKA — position and weather

sailwx.info

Track history (hours):
 
Tides and Currents Weather Stations Pressure Air Temp Water Temp Dewpoint Dewpoint Depression Visibility Wind Speed Wind Dir Waves Ship Positions

Mika

Last reported at 2017-Sep-20 23:35 UTC. Time now 2017-Nov-24 16:51 UTC.
Position S 28°20' E 153°39'.
Warning: this ship's position is months out of date.

Length 12 m.

Type: Sailing vessel. MMSI: 503013090.

Date/timePositionNaut miles runAvg speedWind from/ knotsBaromVisibWave heightAir tempDewpointWater temp
2017-Sep-20 23:35S 28°20' E 153°39'1 6.9
2017-Sep-20 23:30S 28°19' E 153°39'3 6.8
2017-Sep-20 23:00S 28°16' E 153°39'4 7.3
2017-Sep-20 22:30S 28°12' E 153°38'4 7.0
2017-Sep-20 22:00S 28°09' E 153°36'3 6.9
2017-Sep-20 21:30S 28°06' E 153°34'  
2017-Sep-11 01:45S 22°18' E 166°25'1 4.0
2017-Sep-11 01:27S 22°17' E 166°26'1 1.5
2017-Sep-11 00:58S 22°17' E 166°26'0 0.0
2017-Sep-11 00:25S 22°17' E 166°26'0 0.0
2017-Sep-10 23:52S 22°17' E 166°26'  
Track history (hours):
 
Tides and Currents Weather Stations Pressure Air Temp Water Temp Dewpoint Dewpoint Depression Visibility Wind Speed Wind Dir Waves Ship Positions

Mika

Last reported at 2017-Sep-20 23:35 UTC. Time now 2017-Nov-24 16:51 UTC.
Position S 28°20' E 153°39'.
Warning: this ship's position is months out of date.

Length 12 m.

Type: Sailing vessel. MMSI: 503013090.

Date/timePositionNaut miles runAvg speedWind from/ knotsBaromVisibWave heightAir tempDewpointWater temp
2017-Sep-20 23:35S 28°20' E 153°39'1 6.9
2017-Sep-20 23:30S 28°19' E 153°39'3 6.8
2017-Sep-20 23:00S 28°16' E 153°39'4 7.3
2017-Sep-20 22:30S 28°12' E 153°38'4 7.0
2017-Sep-20 22:00S 28°09' E 153°36'3 6.9
2017-Sep-20 21:30S 28°06' E 153°34'  
2017-Sep-11 01:45S 22°18' E 166°25'1 4.0
2017-Sep-11 01:27S 22°17' E 166°26'1 1.5
2017-Sep-11 00:58S 22°17' E 166°26'0 0.0
2017-Sep-11 00:25S 22°17' E 166°26'0 0.0
2017-Sep-10 23:52S 22°17' E 166°26'  

Dump ship's entire track history